sensor_id;sensor_type;location;lat;lon;timestamp;P1;durP1;ratioP1;P2;durP2;ratioP2
29724;SDS011;16636;48.394;15.468;2022-08-19T00:01:32;6.40;;;1.45;;
29724;SDS011;16636;48.394;15.468;2022-08-19T00:04:00;7.10;;;1.92;;
29724;SDS011;16636;48.394;15.468;2022-08-19T00:06:28;7.07;;;1.40;;
29724;SDS011;16636;48.394;15.468;2022-08-19T00:08:55;8.27;;;1.50;;
29724;SDS011;16636;48.394;15.468;2022-08-19T00:11:22;10.57;;;1.67;;
29724;SDS011;16636;48.394;15.468;2022-08-19T00:17:06;6.05;;;1.40;;
29724;SDS011;16636;48.394;15.468;2022-08-19T00:19:34;11.10;;;1.48;;
29724;SDS011;16636;48.394;15.468;2022-08-19T00:22:00;12.40;;;1.30;;
29724;SDS011;16636;48.394;15.468;2022-08-19T00:24:27;4.72;;;1.70;;
29724;SDS011;16636;48.394;15.468;2022-08-19T00:26:55;7.45;;;1.38;;
29724;SDS011;16636;48.394;15.468;2022-08-19T00:29:22;4.63;;;1.70;;
29724;SDS011;16636;48.394;15.468;2022-08-19T00:31:49;3.63;;;1.25;;
29724;SDS011;16636;48.394;15.468;2022-08-19T00:34:18;8.60;;;1.63;;
29724;SDS011;16636;48.394;15.468;2022-08-19T00:36:44;4.65;;;1.10;;
29724;SDS011;16636;48.394;15.468;2022-08-19T00:39:12;5.45;;;1.33;;
29724;SDS011;16636;48.394;15.468;2022-08-19T00:41:39;4.53;;;1.60;;
29724;SDS011;16636;48.394;15.468;2022-08-19T00:44:08;4.47;;;1.20;;
29724;SDS011;16636;48.394;15.468;2022-08-19T00:46:35;7.50;;;1.75;;
29724;SDS011;16636;48.394;15.468;2022-08-19T00:49:05;7.07;;;1.40;;
29724;SDS011;16636;48.394;15.468;2022-08-19T00:51:39;3.97;;;1.50;;
29724;SDS011;16636;48.394;15.468;2022-08-19T00:54:07;8.18;;;1.48;;
29724;SDS011;16636;48.394;15.468;2022-08-19T00:56:34;4.38;;;1.25;;
29724;SDS011;16636;48.394;15.468;2022-08-19T00:59:01;7.15;;;1.85;;
29724;SDS011;16636;48.394;15.468;2022-08-19T01:01:33;11.63;;;1.38;;
29724;SDS011;16636;48.394;15.468;2022-08-19T01:04:04;6.10;;;1.80;;
29724;SDS011;16636;48.394;15.468;2022-08-19T01:06:31;7.53;;;1.67;;
29724;SDS011;16636;48.394;15.468;2022-08-19T01:08:59;8.95;;;1.73;;
29724;SDS011;16636;48.394;15.468;2022-08-19T01:11:28;12.27;;;1.95;;
29724;SDS011;16636;48.394;15.468;2022-08-19T01:13:58;8.70;;;1.73;;
29724;SDS011;16636;48.394;15.468;2022-08-19T01:16:25;13.18;;;1.60;;
29724;SDS011;16636;48.394;15.468;2022-08-19T01:18:53;5.60;;;1.40;;
29724;SDS011;16636;48.394;15.468;2022-08-19T01:23:54;4.10;;;1.85;;
29724;SDS011;16636;48.394;15.468;2022-08-19T01:26:21;5.88;;;1.85;;
29724;SDS011;16636;48.394;15.468;2022-08-19T01:28:49;4.47;;;1.55;;
29724;SDS011;16636;48.394;15.468;2022-08-19T01:31:19;7.70;;;1.70;;
29724;SDS011;16636;48.394;15.468;2022-08-19T01:33:48;7.90;;;1.20;;
29724;SDS011;16636;48.394;15.468;2022-08-19T01:36:22;6.60;;;1.30;;
29724;SDS011;16636;48.394;15.468;2022-08-19T01:38:51;4.63;;;1.35;;
29724;SDS011;16636;48.394;15.468;2022-08-19T01:41:18;7.88;;;2.08;;
29724;SDS011;16636;48.394;15.468;2022-08-19T01:43:45;13.95;;;1.48;;
29724;SDS011;16636;48.394;15.468;2022-08-19T01:46:11;7.30;;;1.55;;
29724;SDS011;16636;48.394;15.468;2022-08-19T01:48:38;5.25;;;2.13;;
29724;SDS011;16636;48.394;15.468;2022-08-19T01:51:06;9.20;;;1.70;;
29724;SDS011;16636;48.394;15.468;2022-08-19T01:53:33;9.65;;;1.67;;
29724;SDS011;16636;48.394;15.468;2022-08-19T01:55:59;12.15;;;1.48;;
29724;SDS011;16636;48.394;15.468;2022-08-19T01:58:27;15.85;;;1.95;;
29724;SDS011;16636;48.394;15.468;2022-08-19T02:00:57;11.63;;;2.17;;
29724;SDS011;16636;48.394;15.468;2022-08-19T02:03:24;12.18;;;1.90;;
29724;SDS011;16636;48.394;15.468;2022-08-19T02:05:54;11.52;;;1.80;;
29724;SDS011;16636;48.394;15.468;2022-08-19T02:08:22;13.40;;;1.63;;
29724;SDS011;16636;48.394;15.468;2022-08-19T02:10:48;10.52;;;1.98;;
29724;SDS011;16636;48.394;15.468;2022-08-19T02:13:15;8.32;;;1.60;;
29724;SDS011;16636;48.394;15.468;2022-08-19T02:15:41;3.92;;;1.55;;
29724;SDS011;16636;48.394;15.468;2022-08-19T02:18:07;5.85;;;1.75;;
29724;SDS011;16636;48.394;15.468;2022-08-19T02:20:33;5.15;;;2.00;;
29724;SDS011;16636;48.394;15.468;2022-08-19T02:23:00;6.13;;;1.75;;
29724;SDS011;16636;48.394;15.468;2022-08-19T02:25:26;8.15;;;1.60;;
29724;SDS011;16636;48.394;15.468;2022-08-19T02:27:53;8.30;;;1.52;;
29724;SDS011;16636;48.394;15.468;2022-08-19T02:30:20;5.28;;;1.55;;
29724;SDS011;16636;48.394;15.468;2022-08-19T02:32:46;9.55;;;1.83;;
29724;SDS011;16636;48.394;15.468;2022-08-19T02:35:12;10.65;;;1.55;;
29724;SDS011;16636;48.394;15.468;2022-08-19T02:37:40;5.40;;;1.77;;
29724;SDS011;16636;48.394;15.468;2022-08-19T02:40:25;9.10;;;1.58;;
29724;SDS011;16636;48.394;15.468;2022-08-19T02:42:52;5.90;;;1.60;;
29724;SDS011;16636;48.394;15.468;2022-08-19T02:45:18;6.60;;;1.35;;
29724;SDS011;16636;48.394;15.468;2022-08-19T02:47:45;3.92;;;1.40;;
29724;SDS011;16636;48.394;15.468;2022-08-19T02:50:16;14.82;;;1.70;;
29724;SDS011;16636;48.394;15.468;2022-08-19T02:52:42;10.32;;;1.90;;
29724;SDS011;16636;48.394;15.468;2022-08-19T02:55:09;5.53;;;1.80;;
29724;SDS011;16636;48.394;15.468;2022-08-19T02:57:35;7.20;;;1.67;;
29724;SDS011;16636;48.394;15.468;2022-08-19T03:00:03;5.55;;;1.30;;
29724;SDS011;16636;48.394;15.468;2022-08-19T03:02:31;9.00;;;2.13;;
29724;SDS011;16636;48.394;15.468;2022-08-19T03:04:56;4.88;;;1.77;;
29724;SDS011;16636;48.394;15.468;2022-08-19T03:07:22;14.80;;;2.28;;
29724;SDS011;16636;48.394;15.468;2022-08-19T03:09:48;5.20;;;1.83;;
29724;SDS011;16636;48.394;15.468;2022-08-19T03:12:14;13.63;;;2.42;;
29724;SDS011;16636;48.394;15.468;2022-08-19T03:14:40;10.65;;;1.92;;
29724;SDS011;16636;48.394;15.468;2022-08-19T03:17:06;8.70;;;1.95;;
29724;SDS011;16636;48.394;15.468;2022-08-19T03:19:33;8.75;;;1.70;;
29724;SDS011;16636;48.394;15.468;2022-08-19T03:21:59;4.05;;;1.40;;
29724;SDS011;16636;48.394;15.468;2022-08-19T03:24:25;8.98;;;1.50;;
29724;SDS011;16636;48.394;15.468;2022-08-19T03:26:53;2.63;;;1.70;;
29724;SDS011;16636;48.394;15.468;2022-08-19T03:29:22;7.55;;;1.77;;
29724;SDS011;16636;48.394;15.468;2022-08-19T03:31:50;7.95;;;2.03;;
29724;SDS011;16636;48.394;15.468;2022-08-19T03:34:23;5.72;;;1.50;;
29724;SDS011;16636;48.394;15.468;2022-08-19T03:36:52;8.50;;;1.58;;
29724;SDS011;16636;48.394;15.468;2022-08-19T03:39:22;7.30;;;1.92;;
29724;SDS011;16636;48.394;15.468;2022-08-19T03:41:50;3.47;;;1.45;;
29724;SDS011;16636;48.394;15.468;2022-08-19T03:44:21;7.10;;;1.60;;
29724;SDS011;16636;48.394;15.468;2022-08-19T03:46:53;5.07;;;1.38;;
29724;SDS011;16636;48.394;15.468;2022-08-19T03:49:23;5.70;;;1.73;;
29724;SDS011;16636;48.394;15.468;2022-08-19T03:51:50;5.60;;;1.70;;
29724;SDS011;16636;48.394;15.468;2022-08-19T03:54:19;7.47;;;1.67;;
29724;SDS011;16636;48.394;15.468;2022-08-19T03:56:51;6.00;;;2.15;;
29724;SDS011;16636;48.394;15.468;2022-08-19T03:59:26;2.47;;;1.30;;
29724;SDS011;16636;48.394;15.468;2022-08-19T04:01:55;4.82;;;1.65;;
29724;SDS011;16636;48.394;15.468;2022-08-19T04:04:22;13.27;;;2.08;;
29724;SDS011;16636;48.394;15.468;2022-08-19T04:06:49;6.93;;;1.70;;
29724;SDS011;16636;48.394;15.468;2022-08-19T04:09:16;11.32;;;2.17;;
29724;SDS011;16636;48.394;15.468;2022-08-19T04:11:48;8.80;;;1.95;;
29724;SDS011;16636;48.394;15.468;2022-08-19T04:14:19;3.42;;;1.80;;
29724;SDS011;16636;48.394;15.468;2022-08-19T04:16:49;6.90;;;1.67;;
29724;SDS011;16636;48.394;15.468;2022-08-19T04:19:15;8.07;;;1.73;;
29724;SDS011;16636;48.394;15.468;2022-08-19T04:21:44;9.45;;;2.15;;
29724;SDS011;16636;48.394;15.468;2022-08-19T04:24:11;3.50;;;1.65;;
29724;SDS011;16636;48.394;15.468;2022-08-19T04:26:37;14.23;;;1.77;;
29724;SDS011;16636;48.394;15.468;2022-08-19T04:29:11;10.07;;;2.00;;
29724;SDS011;16636;48.394;15.468;2022-08-19T04:31:39;3.78;;;1.55;;
29724;SDS011;16636;48.394;15.468;2022-08-19T04:34:08;4.20;;;1.88;;
29724;SDS011;16636;48.394;15.468;2022-08-19T04:36:36;8.82;;;1.80;;
29724;SDS011;16636;48.394;15.468;2022-08-19T04:39:08;7.95;;;1.65;;
29724;SDS011;16636;48.394;15.468;2022-08-19T04:41:35;10.70;;;2.20;;
29724;SDS011;16636;48.394;15.468;2022-08-19T04:44:20;7.57;;;2.15;;
29724;SDS011;16636;48.394;15.468;2022-08-19T04:46:47;8.68;;;2.30;;
29724;SDS011;16636;48.394;15.468;2022-08-19T04:49:14;7.22;;;2.45;;
29724;SDS011;16636;48.394;15.468;2022-08-19T04:51:42;8.65;;;2.40;;
29724;SDS011;16636;48.394;15.468;2022-08-19T04:54:10;7.35;;;2.88;;
29724;SDS011;16636;48.394;15.468;2022-08-19T04:56:36;5.18;;;2.20;;
29724;SDS011;16636;48.394;15.468;2022-08-19T04:59:05;8.90;;;2.97;;
29724;SDS011;16636;48.394;15.468;2022-08-19T05:01:31;8.95;;;2.60;;
29724;SDS011;16636;48.394;15.468;2022-08-19T05:04:02;5.78;;;1.90;;
29724;SDS011;16636;48.394;15.468;2022-08-19T05:06:30;4.30;;;2.17;;
29724;SDS011;16636;48.394;15.468;2022-08-19T05:09:01;8.35;;;2.20;;
29724;SDS011;16636;48.394;15.468;2022-08-19T05:11:30;11.48;;;2.40;;
29724;SDS011;16636;48.394;15.468;2022-08-19T05:13:57;5.32;;;2.20;;
29724;SDS011;16636;48.394;15.468;2022-08-19T05:16:24;9.45;;;2.50;;
29724;SDS011;16636;48.394;15.468;2022-08-19T05:18:52;7.95;;;2.33;;
29724;SDS011;16636;48.394;15.468;2022-08-19T05:21:37;7.97;;;2.63;;
29724;SDS011;16636;48.394;15.468;2022-08-19T05:24:23;6.60;;;3.10;;
29724;SDS011;16636;48.394;15.468;2022-08-19T05:26:50;7.75;;;2.42;;
29724;SDS011;16636;48.394;15.468;2022-08-19T05:29:20;8.15;;;2.20;;
29724;SDS011;16636;48.394;15.468;2022-08-19T05:31:47;20.15;;;3.15;;
29724;SDS011;16636;48.394;15.468;2022-08-19T05:34:19;8.65;;;3.53;;
29724;SDS011;16636;48.394;15.468;2022-08-19T05:36:47;6.38;;;2.85;;
29724;SDS011;16636;48.394;15.468;2022-08-19T05:39:16;6.20;;;3.05;;
29724;SDS011;16636;48.394;15.468;2022-08-19T05:41:45;10.55;;;3.33;;
29724;SDS011;16636;48.394;15.468;2022-08-19T05:44:13;11.20;;;3.00;;
29724;SDS011;16636;48.394;15.468;2022-08-19T05:46:41;7.13;;;3.58;;
29724;SDS011;16636;48.394;15.468;2022-08-19T05:49:12;11.80;;;3.75;;
29724;SDS011;16636;48.394;15.468;2022-08-19T05:51:39;6.82;;;3.50;;
29724;SDS011;16636;48.394;15.468;2022-08-19T05:54:06;6.68;;;3.45;;
29724;SDS011;16636;48.394;15.468;2022-08-19T05:56:33;6.57;;;3.65;;
29724;SDS011;16636;48.394;15.468;2022-08-19T05:59:04;7.30;;;3.25;;
29724;SDS011;16636;48.394;15.468;2022-08-19T06:01:37;8.60;;;3.60;;
29724;SDS011;16636;48.394;15.468;2022-08-19T06:04:04;12.75;;;4.82;;
29724;SDS011;16636;48.394;15.468;2022-08-19T06:06:31;14.73;;;4.35;;
29724;SDS011;16636;48.394;15.468;2022-08-19T06:09:00;8.13;;;4.78;;
29724;SDS011;16636;48.394;15.468;2022-08-19T06:11:37;17.27;;;4.53;;
29724;SDS011;16636;48.394;15.468;2022-08-19T06:14:07;8.35;;;3.83;;
29724;SDS011;16636;48.394;15.468;2022-08-19T06:19:19;12.20;;;3.80;;
29724;SDS011;16636;48.394;15.468;2022-08-19T06:21:47;10.70;;;4.43;;
29724;SDS011;16636;48.394;15.468;2022-08-19T06:24:16;6.93;;;4.13;;
29724;SDS011;16636;48.394;15.468;2022-08-19T06:26:45;9.38;;;4.50;;
29724;SDS011;16636;48.394;15.468;2022-08-19T06:29:13;9.48;;;4.97;;
29724;SDS011;16636;48.394;15.468;2022-08-19T06:31:41;9.55;;;3.47;;
29724;SDS011;16636;48.394;15.468;2022-08-19T06:34:09;11.93;;;4.93;;
29724;SDS011;16636;48.394;15.468;2022-08-19T06:36:37;12.95;;;5.47;;
29724;SDS011;16636;48.394;15.468;2022-08-19T06:39:11;9.68;;;4.18;;
29724;SDS011;16636;48.394;15.468;2022-08-19T06:41:46;14.75;;;6.00;;
29724;SDS011;16636;48.394;15.468;2022-08-19T06:44:16;12.32;;;6.32;;
29724;SDS011;16636;48.394;15.468;2022-08-19T06:46:43;11.65;;;5.88;;
29724;SDS011;16636;48.394;15.468;2022-08-19T06:49:09;8.65;;;5.40;;
29724;SDS011;16636;48.394;15.468;2022-08-19T06:51:39;15.63;;;5.55;;
29724;SDS011;16636;48.394;15.468;2022-08-19T06:54:09;10.18;;;5.78;;
29724;SDS011;16636;48.394;15.468;2022-08-19T06:56:36;12.43;;;5.40;;
29724;SDS011;16636;48.394;15.468;2022-08-19T06:59:04;12.10;;;6.88;;
29724;SDS011;16636;48.394;15.468;2022-08-19T07:01:39;12.27;;;7.07;;
29724;SDS011;16636;48.394;15.468;2022-08-19T07:04:08;13.75;;;6.32;;
29724;SDS011;16636;48.394;15.468;2022-08-19T07:06:35;16.02;;;7.00;;
29724;SDS011;16636;48.394;15.468;2022-08-19T07:09:03;10.65;;;7.05;;
29724;SDS011;16636;48.394;15.468;2022-08-19T07:11:30;14.10;;;7.85;;
29724;SDS011;16636;48.394;15.468;2022-08-19T07:13:58;9.20;;;6.35;;
29724;SDS011;16636;48.394;15.468;2022-08-19T07:16:24;9.77;;;7.07;;
29724;SDS011;16636;48.394;15.468;2022-08-19T07:18:50;13.77;;;7.30;;
29724;SDS011;16636;48.394;15.468;2022-08-19T07:21:19;15.90;;;7.80;;
29724;SDS011;16636;48.394;15.468;2022-08-19T07:23:48;12.80;;;7.40;;
29724;SDS011;16636;48.394;15.468;2022-08-19T07:26:19;11.70;;;6.43;;
29724;SDS011;16636;48.394;15.468;2022-08-19T07:28:56;9.68;;;6.20;;
29724;SDS011;16636;48.394;15.468;2022-08-19T07:31:25;10.88;;;6.63;;
29724;SDS011;16636;48.394;15.468;2022-08-19T07:33:52;10.45;;;6.68;;
29724;SDS011;16636;48.394;15.468;2022-08-19T07:36:24;16.40;;;7.20;;
29724;SDS011;16636;48.394;15.468;2022-08-19T07:38:57;8.60;;;6.78;;
29724;SDS011;16636;48.394;15.468;2022-08-19T07:41:26;14.82;;;6.90;;
29724;SDS011;16636;48.394;15.468;2022-08-19T07:43:57;8.30;;;6.50;;
29724;SDS011;16636;48.394;15.468;2022-08-19T07:46:27;11.75;;;6.25;;
29724;SDS011;16636;48.394;15.468;2022-08-19T07:48:53;11.50;;;6.90;;
29724;SDS011;16636;48.394;15.468;2022-08-19T07:51:20;9.50;;;7.32;;
29724;SDS011;16636;48.394;15.468;2022-08-19T07:53:47;15.88;;;6.85;;
29724;SDS011;16636;48.394;15.468;2022-08-19T07:56:15;8.98;;;6.78;;
29724;SDS011;16636;48.394;15.468;2022-08-19T07:58:44;9.82;;;6.10;;
29724;SDS011;16636;48.394;15.468;2022-08-19T08:03:59;13.95;;;7.32;;
29724;SDS011;16636;48.394;15.468;2022-08-19T08:09:33;8.20;;;5.40;;
29724;SDS011;16636;48.394;15.468;2022-08-19T08:14:33;13.15;;;7.85;;
29724;SDS011;16636;48.394;15.468;2022-08-19T08:17:03;13.40;;;7.30;;
29724;SDS011;16636;48.394;15.468;2022-08-19T08:19:30;11.05;;;7.32;;
29724;SDS011;16636;48.394;15.468;2022-08-19T08:21:58;9.48;;;6.75;;
29724;SDS011;16636;48.394;15.468;2022-08-19T08:24:26;9.27;;;6.68;;
29724;SDS011;16636;48.394;15.468;2022-08-19T08:26:56;12.00;;;7.13;;
29724;SDS011;16636;48.394;15.468;2022-08-19T08:29:24;8.30;;;5.70;;
29724;SDS011;16636;48.394;15.468;2022-08-19T08:31:52;12.77;;;7.30;;
29724;SDS011;16636;48.394;15.468;2022-08-19T08:34:19;9.30;;;7.28;;
29724;SDS011;16636;48.394;15.468;2022-08-19T08:36:45;9.30;;;6.07;;
29724;SDS011;16636;48.394;15.468;2022-08-19T08:39:16;10.88;;;7.18;;
29724;SDS011;16636;48.394;15.468;2022-08-19T08:41:47;9.98;;;7.55;;
29724;SDS011;16636;48.394;15.468;2022-08-19T08:44:32;14.13;;;7.05;;
29724;SDS011;16636;48.394;15.468;2022-08-19T08:47:19;20.13;;;6.40;;
29724;SDS011;16636;48.394;15.468;2022-08-19T08:49:51;10.77;;;6.30;;
29724;SDS011;16636;48.394;15.468;2022-08-19T08:52:26;9.82;;;5.45;;
29724;SDS011;16636;48.394;15.468;2022-08-19T08:54:57;9.45;;;6.35;;
29724;SDS011;16636;48.394;15.468;2022-08-19T09:03:06;8.52;;;4.05;;
29724;SDS011;16636;48.394;15.468;2022-08-19T09:05:45;11.65;;;5.60;;
29724;SDS011;16636;48.394;15.468;2022-08-19T09:08:22;8.68;;;5.25;;
29724;SDS011;16636;48.394;15.468;2022-08-19T09:11:10;11.80;;;6.18;;
29724;SDS011;16636;48.394;15.468;2022-08-19T09:16:16;9.00;;;6.25;;
29724;SDS011;16636;48.394;15.468;2022-08-19T09:18:47;10.93;;;5.72;;
29724;SDS011;16636;48.394;15.468;2022-08-19T09:21:17;12.77;;;5.80;;
29724;SDS011;16636;48.394;15.468;2022-08-19T09:23:44;10.75;;;6.30;;
29724;SDS011;16636;48.394;15.468;2022-08-19T09:26:11;8.77;;;6.03;;
29724;SDS011;16636;48.394;15.468;2022-08-19T09:28:40;11.55;;;6.07;;
29724;SDS011;16636;48.394;15.468;2022-08-19T09:31:13;15.25;;;6.38;;
29724;SDS011;16636;48.394;15.468;2022-08-19T09:33:40;12.52;;;6.60;;
29724;SDS011;16636;48.394;15.468;2022-08-19T09:36:10;11.57;;;6.80;;
29724;SDS011;16636;48.394;15.468;2022-08-19T09:38:38;13.95;;;7.35;;
29724;SDS011;16636;48.394;15.468;2022-08-19T09:41:13;11.27;;;7.40;;
29724;SDS011;16636;48.394;15.468;2022-08-19T09:43:41;15.70;;;7.22;;
29724;SDS011;16636;48.394;15.468;2022-08-19T09:46:10;12.15;;;6.18;;
29724;SDS011;16636;48.394;15.468;2022-08-19T09:48:37;10.57;;;6.90;;
29724;SDS011;16636;48.394;15.468;2022-08-19T09:51:04;7.25;;;5.75;;
29724;SDS011;16636;48.394;15.468;2022-08-19T09:53:33;11.23;;;7.72;;
29724;SDS011;16636;48.394;15.468;2022-08-19T09:56:00;8.35;;;6.80;;
29724;SDS011;16636;48.394;15.468;2022-08-19T09:58:27;13.70;;;7.90;;
29724;SDS011;16636;48.394;15.468;2022-08-19T10:00:54;17.50;;;7.93;;
29724;SDS011;16636;48.394;15.468;2022-08-19T10:03:22;8.30;;;6.60;;
29724;SDS011;16636;48.394;15.468;2022-08-19T10:05:48;11.45;;;7.35;;
29724;SDS011;16636;48.394;15.468;2022-08-19T10:08:18;10.30;;;6.50;;
29724;SDS011;16636;48.394;15.468;2022-08-19T10:10:49;8.48;;;7.10;;
29724;SDS011;16636;48.394;15.468;2022-08-19T10:13:17;12.95;;;6.88;;
29724;SDS011;16636;48.394;15.468;2022-08-19T10:15:47;9.68;;;6.00;;
29724;SDS011;16636;48.394;15.468;2022-08-19T10:18:16;11.13;;;6.88;;
29724;SDS011;16636;48.394;15.468;2022-08-19T10:20:44;7.60;;;5.22;;
29724;SDS011;16636;48.394;15.468;2022-08-19T10:23:11;9.15;;;6.05;;
29724;SDS011;16636;48.394;15.468;2022-08-19T10:25:37;9.52;;;5.97;;
29724;SDS011;16636;48.394;15.468;2022-08-19T10:28:04;14.20;;;6.82;;
29724;SDS011;16636;48.394;15.468;2022-08-19T10:30:31;10.30;;;7.40;;
29724;SDS011;16636;48.394;15.468;2022-08-19T10:32:57;10.27;;;7.15;;
29724;SDS011;16636;48.394;15.468;2022-08-19T10:35:23;18.50;;;7.38;;
29724;SDS011;16636;48.394;15.468;2022-08-19T10:37:53;11.43;;;7.20;;
29724;SDS011;16636;48.394;15.468;2022-08-19T10:40:19;7.80;;;6.47;;
29724;SDS011;16636;48.394;15.468;2022-08-19T10:42:45;9.25;;;6.95;;
29724;SDS011;16636;48.394;15.468;2022-08-19T10:45:11;12.57;;;7.13;;
29724;SDS011;16636;48.394;15.468;2022-08-19T10:47:37;13.23;;;6.72;;
29724;SDS011;16636;48.394;15.468;2022-08-19T10:50:03;8.52;;;6.10;;
29724;SDS011;16636;48.394;15.468;2022-08-19T10:52:48;8.85;;;5.35;;
29724;SDS011;16636;48.394;15.468;2022-08-19T10:55:15;10.48;;;6.40;;
29724;SDS011;16636;48.394;15.468;2022-08-19T10:58:09;10.77;;;6.18;;
29724;SDS011;16636;48.394;15.468;2022-08-19T11:00:39;12.57;;;8.02;;
29724;SDS011;16636;48.394;15.468;2022-08-19T11:03:07;8.68;;;5.57;;
29724;SDS011;16636;48.394;15.468;2022-08-19T11:05:33;12.18;;;5.88;;
29724;SDS011;16636;48.394;15.468;2022-08-19T11:07:59;9.55;;;3.75;;
29724;SDS011;16636;48.394;15.468;2022-08-19T11:10:25;8.68;;;5.10;;
29724;SDS011;16636;48.394;15.468;2022-08-19T11:17:02;6.70;;;3.88;;
29724;SDS011;16636;48.394;15.468;2022-08-19T11:19:29;8.38;;;5.18;;
29724;SDS011;16636;48.394;15.468;2022-08-19T11:21:55;5.55;;;4.25;;
29724;SDS011;16636;48.394;15.468;2022-08-19T11:24:22;5.47;;;4.35;;
29724;SDS011;16636;48.394;15.468;2022-08-19T11:26:50;8.40;;;4.90;;
29724;SDS011;16636;48.394;15.468;2022-08-19T11:29:22;7.63;;;4.60;;
29724;SDS011;16636;48.394;15.468;2022-08-19T11:31:50;5.15;;;3.72;;
29724;SDS011;16636;48.394;15.468;2022-08-19T11:34:21;6.65;;;4.35;;
29724;SDS011;16636;48.394;15.468;2022-08-19T11:36:50;4.93;;;3.78;;
29724;SDS011;16636;48.394;15.468;2022-08-19T11:39:19;6.53;;;4.50;;
29724;SDS011;16636;48.394;15.468;2022-08-19T11:41:47;9.45;;;4.45;;
29724;SDS011;16636;48.394;15.468;2022-08-19T11:44:13;8.57;;;4.10;;
29724;SDS011;16636;48.394;15.468;2022-08-19T11:46:40;6.70;;;3.80;;
29724;SDS011;16636;48.394;15.468;2022-08-19T11:49:10;6.97;;;4.20;;
29724;SDS011;16636;48.394;15.468;2022-08-19T11:51:37;7.28;;;4.38;;
29724;SDS011;16636;48.394;15.468;2022-08-19T11:54:04;7.30;;;4.57;;
29724;SDS011;16636;48.394;15.468;2022-08-19T11:56:31;5.45;;;4.38;;
29724;SDS011;16636;48.394;15.468;2022-08-19T11:58:57;6.47;;;3.95;;
29724;SDS011;16636;48.394;15.468;2022-08-19T12:01:24;5.78;;;4.47;;
29724;SDS011;16636;48.394;15.468;2022-08-19T12:03:51;10.73;;;4.30;;
29724;SDS011;16636;48.394;15.468;2022-08-19T12:06:20;7.82;;;4.65;;
29724;SDS011;16636;48.394;15.468;2022-08-19T12:08:52;9.77;;;4.60;;
29724;SDS011;16636;48.394;15.468;2022-08-19T12:11:18;11.82;;;4.90;;
29724;SDS011;16636;48.394;15.468;2022-08-19T12:13:44;11.48;;;4.68;;
29724;SDS011;16636;48.394;15.468;2022-08-19T12:16:12;8.23;;;4.22;;
29724;SDS011;16636;48.394;15.468;2022-08-19T12:18:42;9.65;;;4.43;;
29724;SDS011;16636;48.394;15.468;2022-08-19T12:21:15;18.42;;;5.78;;
29724;SDS011;16636;48.394;15.468;2022-08-19T12:23:43;11.07;;;4.57;;
29724;SDS011;16636;48.394;15.468;2022-08-19T12:26:12;16.88;;;4.30;;
29724;SDS011;16636;48.394;15.468;2022-08-19T12:28:38;11.63;;;4.15;;
29724;SDS011;16636;48.394;15.468;2022-08-19T12:31:04;8.48;;;4.88;;
29724;SDS011;16636;48.394;15.468;2022-08-19T12:33:30;10.70;;;4.90;;
29724;SDS011;16636;48.394;15.468;2022-08-19T12:36:00;9.00;;;4.75;;
29724;SDS011;16636;48.394;15.468;2022-08-19T12:38:31;11.82;;;5.05;;
29724;SDS011;16636;48.394;15.468;2022-08-19T12:40:59;11.77;;;6.10;;
29724;SDS011;16636;48.394;15.468;2022-08-19T12:43:28;9.55;;;5.18;;
29724;SDS011;16636;48.394;15.468;2022-08-19T12:45:55;12.35;;;5.00;;
29724;SDS011;16636;48.394;15.468;2022-08-19T12:48:21;9.48;;;5.18;;
29724;SDS011;16636;48.394;15.468;2022-08-19T12:50:47;16.27;;;6.40;;
29724;SDS011;16636;48.394;15.468;2022-08-19T12:53:13;7.10;;;4.97;;
29724;SDS011;16636;48.394;15.468;2022-08-19T12:55:40;9.70;;;4.55;;
29724;SDS011;16636;48.394;15.468;2022-08-19T12:58:07;7.75;;;4.97;;
29724;SDS011;16636;48.394;15.468;2022-08-19T13:00:34;11.65;;;5.18;;
29724;SDS011;16636;48.394;15.468;2022-08-19T13:03:00;9.95;;;4.00;;
29724;SDS011;16636;48.394;15.468;2022-08-19T13:05:27;15.88;;;5.88;;
29724;SDS011;16636;48.394;15.468;2022-08-19T13:07:56;9.65;;;4.95;;
29724;SDS011;16636;48.394;15.468;2022-08-19T13:10:28;10.15;;;5.05;;
29724;SDS011;16636;48.394;15.468;2022-08-19T13:13:05;9.45;;;5.60;;
29724;SDS011;16636;48.394;15.468;2022-08-19T13:15:34;11.23;;;5.25;;
29724;SDS011;16636;48.394;15.468;2022-08-19T13:18:02;9.13;;;4.85;;
29724;SDS011;16636;48.394;15.468;2022-08-19T13:20:28;10.63;;;5.32;;
29724;SDS011;16636;48.394;15.468;2022-08-19T13:22:54;7.47;;;4.78;;
29724;SDS011;16636;48.394;15.468;2022-08-19T13:25:22;9.63;;;5.13;;
29724;SDS011;16636;48.394;15.468;2022-08-19T13:27:48;9.98;;;5.00;;
29724;SDS011;16636;48.394;15.468;2022-08-19T13:30:16;6.65;;;5.18;;
29724;SDS011;16636;48.394;15.468;2022-08-19T13:33:03;9.57;;;5.15;;
29724;SDS011;16636;48.394;15.468;2022-08-19T13:35:49;7.20;;;4.80;;
29724;SDS011;16636;48.394;15.468;2022-08-19T13:38:21;6.40;;;3.88;;
29724;SDS011;16636;48.394;15.468;2022-08-19T13:40:48;8.07;;;4.47;;
29724;SDS011;16636;48.394;15.468;2022-08-19T13:43:17;6.40;;;4.30;;
29724;SDS011;16636;48.394;15.468;2022-08-19T13:45:44;6.38;;;4.88;;
29724;SDS011;16636;48.394;15.468;2022-08-19T13:48:10;8.02;;;4.18;;
29724;SDS011;16636;48.394;15.468;2022-08-19T13:50:39;7.93;;;4.60;;
29724;SDS011;16636;48.394;15.468;2022-08-19T13:53:08;5.63;;;4.57;;
29724;SDS011;16636;48.394;15.468;2022-08-19T13:55:35;8.63;;;5.18;;
29724;SDS011;16636;48.394;15.468;2022-08-19T13:58:03;6.30;;;4.68;;
29724;SDS011;16636;48.394;15.468;2022-08-19T14:00:33;9.25;;;4.95;;
29724;SDS011;16636;48.394;15.468;2022-08-19T14:03:02;11.65;;;4.78;;
29724;SDS011;16636;48.394;15.468;2022-08-19T14:05:29;16.58;;;5.22;;
29724;SDS011;16636;48.394;15.468;2022-08-19T14:07:55;11.68;;;5.30;;
29724;SDS011;16636;48.394;15.468;2022-08-19T14:10:23;12.50;;;5.32;;
29724;SDS011;16636;48.394;15.468;2022-08-19T14:12:54;14.30;;;5.43;;
29724;SDS011;16636;48.394;15.468;2022-08-19T14:15:20;7.97;;;5.05;;
29724;SDS011;16636;48.394;15.468;2022-08-19T14:17:48;4.65;;;3.97;;
29724;SDS011;16636;48.394;15.468;2022-08-19T14:20:14;11.35;;;4.70;;
29724;SDS011;16636;48.394;15.468;2022-08-19T14:22:41;9.80;;;4.72;;
29724;SDS011;16636;48.394;15.468;2022-08-19T14:25:10;16.05;;;4.88;;
29724;SDS011;16636;48.394;15.468;2022-08-19T14:27:39;8.57;;;4.18;;
29724;SDS011;16636;48.394;15.468;2022-08-19T14:30:06;12.20;;;5.70;;
29724;SDS011;16636;48.394;15.468;2022-08-19T14:32:34;7.85;;;4.80;;
29724;SDS011;16636;48.394;15.468;2022-08-19T14:35:00;17.27;;;4.85;;
29724;SDS011;16636;48.394;15.468;2022-08-19T14:37:27;11.18;;;4.40;;
29724;SDS011;16636;48.394;15.468;2022-08-19T14:39:53;8.88;;;4.30;;
29724;SDS011;16636;48.394;15.468;2022-08-19T14:42:19;8.80;;;4.20;;
29724;SDS011;16636;48.394;15.468;2022-08-19T14:44:45;4.65;;;3.75;;
29724;SDS011;16636;48.394;15.468;2022-08-19T14:47:11;12.10;;;4.45;;
29724;SDS011;16636;48.394;15.468;2022-08-19T14:49:37;11.77;;;5.30;;
29724;SDS011;16636;48.394;15.468;2022-08-19T14:52:04;9.93;;;3.80;;
29724;SDS011;16636;48.394;15.468;2022-08-19T14:54:31;17.20;;;4.50;;
29724;SDS011;16636;48.394;15.468;2022-08-19T14:56:57;17.08;;;4.40;;
29724;SDS011;16636;48.394;15.468;2022-08-19T14:59:23;11.85;;;3.88;;
29724;SDS011;16636;48.394;15.468;2022-08-19T15:01:49;10.65;;;3.95;;
29724;SDS011;16636;48.394;15.468;2022-08-19T15:04:15;13.25;;;3.47;;
29724;SDS011;16636;48.394;15.468;2022-08-19T15:06:41;9.75;;;3.22;;